Time;durP1;ratioP1;P1;durP2;ratioP2;P2;SDS_P1;SDS_P2;PMS_P1;PMS_P2;Temp;Humidity;BMP_temperature;BMP_pressure;BME280_temperature;BME280_humidity;BME280_pressure;Samples;Min_cycle;Max_cycle;Signal;HPM_P1;HPM_P2
2022/01/22 00:02:12;;;;;;;14.40;6.00;;;0.70;92.30;;;;;;4914492;29;20051;-72
2022/01/22 00:04:38;;;;;;;23.95;8.93;;;0.70;92.20;;;;;;4914979;29;20386;-74
2022/01/22 00:07:06;;;;;;;25.45;8.27;;;0.70;92.00;;;;;;4914796;29;20040;-74
2022/01/22 00:09:39;;;;;;;28.77;11.25;;;0.80;92.10;;;;;;4915046;29;20036;-75
2022/01/22 00:15:09;;;;;;;23.08;8.98;;;0.80;93.00;;;;;;4915116;29;20451;-75
2022/01/22 00:17:35;;;;;;;19.92;9.88;;;0.80;93.00;;;;;;4914666;29;20439;-75
2022/01/22 00:20:02;;;;;;;25.55;9.90;;;0.80;93.50;;;;;;4914820;29;20124;-74
2022/01/22 00:22:31;;;;;;;19.33;7.43;;;0.80;93.30;;;;;;4915154;29;20103;-73
2022/01/22 00:25:00;;;;;;;20.98;7.15;;;0.80;93.90;;;;;;4914806;29;20040;-77
2022/01/22 00:27:27;;;;;;;11.77;5.03;;;0.80;93.90;;;;;;4915374;29;20040;-75
2022/01/22 00:29:53;;;;;;;9.77;3.83;;;0.80;93.20;;;;;;4915506;29;20510;-75
2022/01/22 00:35:37;;;;;;;9.95;4.53;;;0.80;94.30;;;;;;4954312;29;20579;-73
2022/01/22 00:38:39;;;;;;;13.93;4.43;;;0.80;94.10;;;;;;4955365;29;20106;-72
2022/01/22 00:41:07;;;;;;;13.00;4.88;;;0.90;93.70;;;;;;4914976;29;20044;-73
2022/01/22 00:43:33;;;;;;;14.57;5.43;;;0.90;93.40;;;;;;4914841;29;20038;-73
2022/01/22 00:46:08;;;;;;;16.55;5.07;;;0.90;94.00;;;;;;4914492;29;20048;-73
2022/01/22 00:48:35;;;;;;;9.63;3.78;;;0.90;94.30;;;;;;4898891;29;20111;-70
2022/01/22 00:51:01;;;;;;;10.73;3.95;;;0.90;94.60;;;;;;4914865;29;20073;-74
2022/01/22 00:56:22;;;;;;;13.07;5.47;;;0.90;94.20;;;;;;4896232;29;20043;-74
2022/01/22 00:58:51;;;;;;;9.73;3.75;;;0.90;94.60;;;;;;4898575;29;20043;-73
2022/01/22 01:01:17;;;;;;;6.90;3.10;;;0.90;94.40;;;;;;4914471;29;20430;-75
2022/01/22 01:03:43;;;;;;;8.68;3.45;;;0.90;93.90;;;;;;4914602;29;20028;-75
2022/01/22 01:06:08;;;;;;;9.32;3.13;;;0.90;93.40;;;;;;4914630;29;20047;-74
2022/01/22 01:08:36;;;;;;;10.85;3.67;;;0.90;93.10;;;;;;4898726;29;20523;-74
2022/01/22 01:11:42;;;;;;;9.32;3.00;;;0.90;92.60;;;;;;4898587;29;20032;-75
2022/01/22 01:14:24;;;;;;;7.65;3.00;;;0.90;92.30;;;;;;4839162;29;20398;-76
2022/01/22 01:17:07;;;;;;;10.02;3.13;;;0.90;92.10;;;;;;4842229;29;20083;-76
2022/01/22 01:34:40;;;;;;;12.52;3.55;;;0.90;91.90;;;;;;4821412;29;20038;-76
2022/01/22 01:36:55;;;;;;;10.40;3.88;;;0.80;91.90;;;;;;4806528;29;20136;-74
2022/01/22 01:40:03;;;;;;;10.73;3.92;;;0.80;92.10;;;;;;4821334;29;20483;-77
2022/01/22 01:42:39;;;;;;;8.82;3.60;;;0.80;92.50;;;;;;4770077;30;20062;-70
2022/01/22 01:45:32;;;;;;;10.43;3.60;;;0.80;92.60;;;;;;4769616;30;20405;-76
2022/01/22 01:48:08;;;;;;;6.03;3.17;;;0.80;93.10;;;;;;4734644;30;20064;-74
2022/01/22 01:50:37;;;;;;;10.05;3.95;;;0.80;93.90;;;;;;4734889;30;20429;-69
2022/01/22 01:58:24;;;;;;;;;;;0.70;95.20;;;;;;4803382;29;20047;-75
2022/01/22 02:00:51;;;;;;;10.73;4.65;;;0.60;95.80;;;;;;4802774;29;19921;-69
2022/01/22 02:03:19;;;;;;;9.77;4.40;;;0.50;97.00;;;;;;4787489;29;20039;-71
2022/01/22 02:05:52;;;;;;;8.55;4.20;;;0.50;97.50;;;;;;4785171;30;20043;-72
2022/01/22 02:08:20;;;;;;;9.50;4.45;;;0.50;97.00;;;;;;4784139;30;20149;-71
2022/01/22 02:10:58;;;;;;;10.77;4.47;;;0.40;97.20;;;;;;4769550;30;20027;-71
2022/01/22 02:25:07;;;;;;;12.93;5.60;;;0.40;97.60;;;;;;4864456;29;20064;-72
2022/01/22 02:27:33;;;;;;;14.07;5.78;;;0.40;98.00;;;;;;4898536;29;20040;-73
2022/01/22 02:29:59;;;;;;;11.10;5.13;;;0.40;98.50;;;;;;4898078;29;20140;-72
2022/01/22 02:39:09;;;;;;;11.13;4.63;;;0.20;99.90;;;;;;4916935;29;20036;-75
2022/01/22 02:41:58;;;;;;;13.20;4.80;;;0.20;99.90;;;;;;4917102;29;20055;-75
2022/01/22 02:44:36;;;;;;;9.93;5.05;;;0.10;99.90;;;;;;4936032;29;20032;-74
2022/01/22 02:47:46;;;;;;;11.52;4.93;;;0.10;99.90;;;;;;4936148;29;20039;-76
2022/01/22 02:50:15;;;;;;;10.75;4.95;;;0.10;99.90;;;;;;4920229;29;20067;-75
2022/01/22 02:52:49;;;;;;;14.70;5.55;;;0.00;99.90;;;;;;4927069;29;20385;-75
2022/01/22 02:55:16;;;;;;;11.95;4.47;;;0.10;99.90;;;;;;4954711;29;20039;-75
2022/01/22 02:57:44;;;;;;;10.80;4.95;;;0.10;99.90;;;;;;4954849;29;20028;-74
2022/01/22 03:00:16;;;;;;;14.60;6.22;;;0.10;99.90;;;;;;4954554;29;20043;-73
2022/01/22 03:02:42;;;;;;;13.23;5.68;;;0.10;99.90;;;;;;4954980;29;20061;-74
2022/01/22 03:05:31;;;;;;;13.05;5.40;;;0.10;99.90;;;;;;4938845;29;20087;-76
2022/01/22 03:08:27;;;;;;;17.88;5.30;;;0.10;99.90;;;;;;4863177;29;20072;-75
2022/01/22 03:11:21;;;;;;;15.23;5.82;;;0.10;99.90;;;;;;4865224;29;20077;-74
2022/01/22 03:17:10;;;;;;;15.20;5.85;;;0.00;99.90;;;;;;4844732;29;20046;-76
2022/01/22 03:27:31;;;;;;;11.00;4.93;;;-0.20;99.90;;;;;;4860028;29;20049;-74
2022/01/22 03:30:48;;;;;;;9.27;4.45;;;-0.20;99.90;;;;;;4859928;29;20033;-77
2022/01/22 03:33:33;;;;;;;11.13;4.65;;;-0.20;99.90;;;;;;4786789;30;20105;-75
2022/01/22 03:36:05;;;;;;;9.60;4.10;;;-0.30;99.90;;;;;;4786026;29;20518;-77
2022/01/22 03:38:31;;;;;;;12.80;4.70;;;-0.30;99.90;;;;;;4786798;30;20039;-72
2022/01/22 03:40:57;;;;;;;8.88;4.10;;;-0.30;99.90;;;;;;4786602;30;20053;-77
2022/01/22 03:43:23;;;;;;;9.02;3.58;;;-0.30;99.90;;;;;;4786786;30;20074;-74
2022/01/22 03:45:52;;;;;;;8.27;3.72;;;-0.30;99.90;;;;;;4818339;29;20035;-76
2022/01/22 03:48:18;;;;;;;10.93;3.55;;;-0.40;99.90;;;;;;4823184;29;20091;-74
2022/01/22 03:50:44;;;;;;;7.68;3.72;;;-0.40;99.90;;;;;;4822937;29;20038;-73
2022/01/22 03:53:09;;;;;;;8.93;4.22;;;-0.40;99.90;;;;;;4844967;29;20093;-72
2022/01/22 03:59:25;;;;;;;10.93;4.32;;;-0.40;99.90;;;;;;4878172;29;20099;-77
2022/01/22 04:02:41;;;;;;;12.00;4.60;;;-0.40;99.90;;;;;;4753647;30;20083;-78
2022/01/22 04:05:02;;;;;;;11.23;5.13;;;-0.40;99.90;;;;;;4768595;30;20067;-73
2022/01/22 04:10:57;;;;;;;18.42;5.22;;;-0.40;99.90;;;;;;4806931;29;20498;-76
2022/01/22 04:13:30;;;;;;;11.10;4.68;;;-0.50;99.90;;;;;;4822778;29;20136;-76
2022/01/22 04:15:57;;;;;;;10.57;5.05;;;-0.40;99.90;;;;;;4822349;29;20102;-77
2022/01/22 04:27:21;;;;;;;13.52;4.40;;;-0.20;99.90;;;;;;4822478;29;20050;-75
2022/01/22 04:30:14;;;;;;;10.57;4.65;;;-0.20;99.90;;;;;;4822361;29;20042;-76
2022/01/22 04:32:40;;;;;;;8.25;4.35;;;-0.20;99.90;;;;;;4820783;29;20042;-76
2022/01/22 04:35:07;;;;;;;10.80;5.50;;;-0.20;99.90;;;;;;4822359;29;20039;-72
2022/01/22 04:37:33;;;;;;;9.88;4.85;;;-0.20;99.90;;;;;;4836505;29;20122;-77
2022/01/22 04:39:59;;;;;;;11.15;5.10;;;-0.30;99.70;;;;;;4861491;29;20206;-73
2022/01/22 04:42:57;;;;;;;8.25;4.60;;;-0.20;99.90;;;;;;4861352;29;20503;-75
2022/01/22 04:45:41;;;;;;;9.45;4.13;;;-0.30;99.90;;;;;;4875741;29;20400;-77
2022/01/22 04:57:17;;;;;;;8.05;3.70;;;-0.40;99.50;;;;;;4934594;29;20040;-73
2022/01/22 05:03:09;;;;;;;11.80;4.53;;;-0.30;98.80;;;;;;4935795;29;20550;-75
2022/01/22 05:05:51;;;;;;;;;;;-0.30;99.20;;;;;;4934556;29;20394;-73
2022/01/22 05:08:26;;;;;;;4.97;2.60;;;-0.30;98.50;;;;;;4935292;29;19932;-75
2022/01/22 05:11:24;;;;;;;;;;;;;;;;;;;;;
2022/01/22 05:14:06;;;;;;;12.43;4.78;;;-0.30;97.90;;;;;;4932350;29;20051;-74
2022/01/22 05:16:32;;;;;;;14.20;6.13;;;-0.40;98.00;;;;;;4933976;29;20028;-76
2022/01/22 05:25:08;;;;;;;12.13;3.55;;;-0.50;99.30;;;;;;4933906;29;20028;-76
2022/01/22 05:31:05;;;;;;;12.13;5.35;;;-0.50;98.80;;;;;;4933839;29;20063;-77
2022/01/22 05:39:24;;;;;;;8.20;3.83;;;-0.10;95.60;;;;;;4933818;29;20378;-76
2022/01/22 05:41:51;;;;;;;9.77;4.35;;;0.00;94.80;;;;;;4935021;29;20577;-74
2022/01/22 05:44:17;;;;;;;9.00;3.80;;;0.10;93.80;;;;;;4933580;29;20028;-77
2022/01/22 05:46:48;;;;;;;8.07;3.58;;;0.20;93.00;;;;;;4934780;29;20463;-76
2022/01/22 05:49:19;;;;;;;11.02;3.33;;;0.30;92.50;;;;;;4935312;29;20028;-76
2022/01/22 05:51:48;;;;;;;7.45;3.05;;;0.40;91.80;;;;;;4942059;29;20419;-77
2022/01/22 06:00:35;;;;;;;8.45;2.90;;;0.50;90.90;;;;;;4937975;29;20086;-77
2022/01/22 06:03:13;;;;;;;8.05;3.25;;;0.60;90.30;;;;;;4938798;29;20097;-74
2022/01/22 06:05:51;;;;;;;8.13;2.75;;;0.60;90.40;;;;;;4922797;29;20059;-72
2022/01/22 06:08:18;;;;;;;8.00;3.42;;;0.60;88.90;;;;;;4938793;29;20036;-74
2022/01/22 06:10:47;;;;;;;12.95;4.43;;;0.60;89.20;;;;;;4938742;29;20063;-73
2022/01/22 06:13:19;;;;;;;11.57;4.97;;;0.60;87.50;;;;;;4938440;29;20039;-75
2022/01/22 06:15:45;;;;;;;19.08;6.10;;;0.70;87.20;;;;;;4938256;29;20043;-75
2022/01/22 06:18:37;;;;;;;14.73;5.65;;;0.80;87.40;;;;;;4924027;29;20094;-74
2022/01/22 06:21:24;;;;;;;11.80;4.68;;;0.80;87.40;;;;;;4938457;29;20052;-71
2022/01/22 06:23:53;;;;;;;9.70;4.40;;;0.80;86.90;;;;;;4921995;29;20034;-73
2022/01/22 06:26:19;;;;;;;12.48;5.97;;;0.90;86.90;;;;;;4922607;29;20048;-69
2022/01/22 06:28:46;;;;;;;8.02;4.40;;;0.90;88.10;;;;;;4938747;29;20047;-74
2022/01/22 06:31:30;;;;;;;14.38;4.95;;;0.90;88.00;;;;;;4922279;29;20090;-73
2022/01/22 06:34:06;;;;;;;11.05;4.70;;;0.90;88.30;;;;;;4944517;29;20495;-72
2022/01/22 06:37:12;;;;;;;12.15;4.57;;;0.90;88.00;;;;;;4958575;29;20394;-73
2022/01/22 06:43:52;;;;;;;13.15;5.63;;;0.90;87.70;;;;;;4960179;29;20098;-73
2022/01/22 06:47:07;;;;;;;13.65;5.00;;;1.00;86.80;;;;;;4900657;29;20043;-76
2022/01/22 06:49:55;;;;;;;18.42;6.72;;;1.00;85.40;;;;;;4883951;29;20043;-75
2022/01/22 06:52:41;;;;;;;17.20;6.97;;;1.00;85.70;;;;;;4900179;29;20530;-76
2022/01/22 06:55:43;;;;;;;14.52;6.97;;;1.00;85.70;;;;;;4900333;29;20483;-77
2022/01/22 06:58:14;;;;;;;15.43;6.28;;;1.10;85.80;;;;;;4895927;29;20052;-75
2022/01/22 07:01:11;;;;;;;17.98;6.65;;;1.10;85.40;;;;;;4899907;29;20036;-73
2022/01/22 07:07:40;;;;;;;20.02;8.15;;;1.20;84.90;;;;;;4863177;29;20034;-70
2022/01/22 07:10:06;;;;;;;16.83;6.57;;;1.20;82.80;;;;;;4846088;29;20098;-69
2022/01/22 07:12:32;;;;;;;16.05;6.70;;;1.20;83.30;;;;;;4859675;29;20424;-75
2022/01/22 07:15:43;;;;;;;12.80;5.75;;;1.30;83.50;;;;;;4858995;29;20049;-74
2022/01/22 07:18:36;;;;;;;14.27;6.63;;;1.30;84.00;;;;;;4836851;29;20652;-73
2022/01/22 07:21:15;;;;;;;14.27;7.30;;;1.30;83.50;;;;;;4822754;29;20379;-73
2022/01/22 07:26:30;;;;;;;15.65;6.57;;;1.30;83.30;;;;;;4840706;29;20048;-71
2022/01/22 07:29:49;;;;;;;;;;;;;;;;;;;;;
2022/01/22 07:32:46;;;;;;;23.17;9.88;;;1.40;83.20;;;;;;4839878;29;20122;-74
2022/01/22 07:35:41;;;;;;;27.77;11.50;;;1.40;84.20;;;;;;4855610;29;20045;-73
2022/01/22 07:38:41;;;;;;;36.58;13.40;;;1.40;84.70;;;;;;4811694;29;20041;-74
2022/01/22 07:42:06;;;;;;;13.90;6.03;;;1.40;83.50;;;;;;4841074;29;20086;-73
2022/01/22 07:44:51;;;;;;;16.25;5.63;;;1.50;85.00;;;;;;4845526;29;20041;-72
2022/01/22 07:47:53;;;;;;;13.48;6.88;;;1.40;85.70;;;;;;4859090;29;20045;-70
2022/01/22 07:50:42;;;;;;;17.90;8.25;;;1.40;85.30;;;;;;4895903;29;20127;-73
2022/01/22 07:53:24;;;;;;;17.83;7.93;;;1.50;86.70;;;;;;4880870;29;20039;-74
2022/01/22 07:55:59;;;;;;;19.02;8.82;;;1.50;85.80;;;;;;4865973;29;20132;-74
2022/01/22 07:58:25;;;;;;;20.55;7.43;;;1.50;87.30;;;;;;4895987;29;20203;-74
2022/01/22 08:00:51;;;;;;;17.85;8.27;;;1.50;85.20;;;;;;4893034;29;20036;-72
2022/01/22 08:03:18;;;;;;;21.38;8.95;;;1.50;85.70;;;;;;4916593;29;20035;-73
2022/01/22 08:10:04;;;;;;;16.85;7.95;;;1.60;87.00;;;;;;4876509;29;20036;-71
2022/01/22 08:13:21;;;;;;;;;;;;;;;;;;;;;
2022/01/22 08:16:25;;;;;;;16.80;8.35;;;1.60;86.80;;;;;;4861218;29;20070;-73
2022/01/22 08:19:15;;;;;;;20.27;9.05;;;1.60;86.80;;;;;;4861866;29;20041;-72
2022/01/22 08:21:42;;;;;;;18.27;8.43;;;1.60;86.20;;;;;;4875380;29;20076;-73
2022/01/22 08:24:27;;;;;;;26.15;10.68;;;1.70;87.20;;;;;;4877266;29;20040;-70
2022/01/22 08:30:25;;;;;;;13.88;5.70;;;1.70;90.10;;;;;;4862118;29;20032;-72
2022/01/22 08:38:49;;;;;;;14.73;5.97;;;1.60;91.60;;;;;;4853891;29;20488;-71
2022/01/22 08:41:23;;;;;;;9.15;4.22;;;1.60;92.90;;;;;;4919278;29;20105;-73
2022/01/22 08:43:49;;;;;;;16.02;6.85;;;1.30;99.90;;;;;;4952900;29;20493;-69
2022/01/22 08:46:15;;;;;;;7.97;3.17;;;1.10;99.90;;;;;;4952151;29;20043;-68
2022/01/22 08:48:54;;;;;;;10.75;4.45;;;0.90;99.90;;;;;;4953008;29;20031;-74
2022/01/22 08:51:32;;;;;;;11.45;6.40;;;0.70;99.90;;;;;;4952557;29;20367;-74
2022/01/22 08:54:10;;;;;;;14.30;6.85;;;0.60;99.90;;;;;;4952868;29;20039;-73
2022/01/22 08:56:39;;;;;;;21.13;8.50;;;0.50;99.90;;;;;;4952728;29;20059;-74
2022/01/22 08:59:14;;;;;;;22.38;9.77;;;0.40;99.90;;;;;;4959016;28;20043;-75
2022/01/22 09:01:55;;;;;;;17.80;8.73;;;0.40;99.90;;;;;;4951490;29;20043;-72
2022/01/22 09:04:36;;;;;;;20.08;8.93;;;0.40;99.90;;;;;;4952911;29;20095;-74
2022/01/22 09:07:41;;;;;;;20.30;7.90;;;0.40;99.90;;;;;;4876320;29;20068;-75
2022/01/22 09:10:28;;;;;;;20.25;10.82;;;0.50;99.90;;;;;;4876802;29;20523;-74
2022/01/22 09:13:14;;;;;;;18.35;9.15;;;0.50;99.90;;;;;;4877011;29;20052;-76
2022/01/22 09:16:15;;;;;;;13.68;8.27;;;0.40;99.90;;;;;;4858022;29;20143;-76
2022/01/22 09:18:44;;;;;;;19.42;11.20;;;0.40;99.90;;;;;;4857888;29;20033;-72
2022/01/22 09:21:10;;;;;;;18.52;10.73;;;0.40;99.90;;;;;;4841665;29;20165;-74
2022/01/22 09:23:40;;;;;;;14.73;8.65;;;0.60;99.90;;;;;;4857338;29;20094;-76
2022/01/22 09:26:24;;;;;;;18.25;8.65;;;0.50;99.90;;;;;;4857541;29;20085;-75
2022/01/22 09:28:52;;;;;;;15.55;8.05;;;0.60;99.90;;;;;;4842214;29;20065;-75
2022/01/22 09:31:20;;;;;;;16.60;8.55;;;0.60;99.90;;;;;;4857697;29;20049;-75
2022/01/22 09:33:51;;;;;;;17.35;8.45;;;0.60;99.90;;;;;;4856872;29;20034;-75
2022/01/22 09:36:17;;;;;;;17.13;8.82;;;0.70;99.90;;;;;;4858005;29;20056;-74
2022/01/22 09:39:03;;;;;;;15.00;8.70;;;0.70;99.90;;;;;;4871777;29;20101;-76
2022/01/22 09:41:39;;;;;;;20.25;9.85;;;0.80;99.90;;;;;;4876001;29;20084;-74
2022/01/22 09:44:24;;;;;;;22.50;10.52;;;0.70;99.90;;;;;;4876282;29;20051;-74
2022/01/22 09:47:04;;;;;;;20.67;11.88;;;0.80;99.90;;;;;;4876179;29;20055;-74
2022/01/22 09:49:53;;;;;;;20.50;12.32;;;0.90;99.90;;;;;;4896440;29;20116;-74
2022/01/22 09:52:39;;;;;;;18.15;10.80;;;0.90;99.90;;;;;;4935194;29;20505;-74
2022/01/22 09:55:25;;;;;;;19.58;11.20;;;0.90;99.90;;;;;;4913936;29;20051;-74
2022/01/22 09:58:01;;;;;;;22.63;11.77;;;0.90;99.90;;;;;;4924317;29;20044;-74
2022/01/22 10:00:46;;;;;;;32.63;18.17;;;1.00;99.90;;;;;;4932659;29;20058;-75
2022/01/22 10:03:39;;;;;;;21.42;9.65;;;1.00;99.90;;;;;;4932321;29;20043;-73
2022/01/22 10:06:32;;;;;;;22.30;12.05;;;1.10;99.90;;;;;;4876043;29;20053;-72
2022/01/22 10:09:33;;;;;;;21.52;9.93;;;1.00;99.90;;;;;;4860645;29;20041;-73
2022/01/22 10:12:26;;;;;;;22.77;10.38;;;1.10;99.90;;;;;;4838707;29;20215;-75
2022/01/22 10:15:16;;;;;;;16.30;8.95;;;1.10;99.90;;;;;;4839313;29;20071;-74
2022/01/22 10:17:51;;;;;;;13.95;7.68;;;1.40;99.90;;;;;;4838595;29;20489;-75
2022/01/22 10:20:29;;;;;;;17.63;7.35;;;1.50;99.90;;;;;;4839249;29;20045;-74
2022/01/22 10:23:16;;;;;;;12.65;6.80;;;1.50;99.90;;;;;;4838265;29;20050;-71
2022/01/22 10:25:48;;;;;;;14.63;6.97;;;1.70;99.90;;;;;;4838114;29;20038;-72
2022/01/22 10:28:21;;;;;;;14.52;8.13;;;1.80;99.90;;;;;;4838626;29;20042;-74
2022/01/22 10:30:58;;;;;;;12.52;6.68;;;1.90;99.90;;;;;;4837666;29;20106;-74
2022/01/22 10:33:39;;;;;;;16.00;8.70;;;1.80;99.90;;;;;;4823482;29;20038;-71
2022/01/22 10:36:23;;;;;;;14.02;8.07;;;1.90;99.90;;;;;;4832000;29;20041;-73
2022/01/22 10:39:21;;;;;;;17.20;9.23;;;2.00;99.90;;;;;;4811381;29;20038;-71
2022/01/22 10:41:47;;;;;;;14.90;8.77;;;2.00;99.90;;;;;;4837692;29;20050;-74
2022/01/22 10:44:19;;;;;;;15.85;7.90;;;2.00;99.90;;;;;;4879476;29;20029;-74
2022/01/22 10:47:03;;;;;;;13.65;8.10;;;1.90;99.90;;;;;;4896934;29;20104;-74
2022/01/22 10:49:29;;;;;;;17.52;7.93;;;1.80;99.90;;;;;;4926804;29;20481;-73
2022/01/22 10:51:59;;;;;;;16.48;8.13;;;1.80;99.90;;;;;;4955564;29;20426;-72
2022/01/22 10:54:33;;;;;;;13.80;7.72;;;1.50;99.90;;;;;;4954399;29;20035;-74
2022/01/22 10:57:15;;;;;;;15.25;8.23;;;1.50;99.90;;;;;;4954706;29;20532;-76
2022/01/22 10:59:49;;;;;;;15.73;8.07;;;1.60;99.90;;;;;;4955316;29;20059;-74
2022/01/22 11:02:17;;;;;;;19.60;9.48;;;1.60;99.90;;;;;;4956387;29;20285;-75
2022/01/22 11:04:44;;;;;;;22.20;10.75;;;1.50;99.90;;;;;;4923076;29;20122;-72
2022/01/22 11:07:19;;;;;;;26.52;15.15;;;1.60;99.90;;;;;;4956899;29;20123;-73
2022/01/22 11:09:46;;;;;;;25.55;13.68;;;1.70;99.90;;;;;;4956382;29;20075;-73
2022/01/22 11:12:12;;;;;;;20.38;12.40;;;1.70;99.90;;;;;;4956863;29;20015;-72
2022/01/22 11:14:40;;;;;;;24.80;13.90;;;1.60;99.90;;;;;;4956582;29;20031;-74
2022/01/22 11:17:07;;;;;;;22.08;12.68;;;1.50;99.90;;;;;;4956652;29;20492;-74
2022/01/22 11:19:35;;;;;;;28.10;15.88;;;1.50;99.90;;;;;;4956690;29;20027;-75
2022/01/22 11:22:10;;;;;;;28.58;11.68;;;1.60;99.90;;;;;;4956593;29;20549;-73
2022/01/22 11:24:39;;;;;;;17.75;9.48;;;1.60;99.90;;;;;;4956403;29;20031;-74
2022/01/22 11:27:08;;;;;;;18.10;9.50;;;1.70;99.90;;;;;;4923401;29;20027;-74
2022/01/22 11:30:03;;;;;;;17.40;8.75;;;1.60;99.90;;;;;;4955835;29;20560;-72
2022/01/22 11:32:55;;;;;;;18.77;10.20;;;1.60;99.90;;;;;;4937574;29;20390;-76
2022/01/22 11:35:29;;;;;;;15.68;9.30;;;1.60;99.90;;;;;;4935035;29;20036;-76
2022/01/22 11:38:06;;;;;;;17.02;8.40;;;1.60;99.90;;;;;;4935384;29;20043;-77
2022/01/22 11:40:33;;;;;;;20.05;10.15;;;1.60;99.90;;;;;;4934224;29;20048;-77
2022/01/22 11:43:08;;;;;;;18.40;10.90;;;1.50;99.90;;;;;;4935178;29;20038;-75
2022/01/22 11:45:36;;;;;;;23.02;11.82;;;1.50;99.90;;;;;;4934661;28;20036;-75
2022/01/22 11:48:26;;;;;;;17.98;9.57;;;1.50;99.90;;;;;;4934867;29;20477;-79
2022/01/22 11:50:55;;;;;;;19.85;10.65;;;1.40;99.90;;;;;;4934963;29;20483;-79
2022/01/22 11:53:37;;;;;;;21.48;12.27;;;1.50;99.90;;;;;;4934997;29;20032;-76
2022/01/22 11:56:12;;;;;;;23.38;12.35;;;1.50;99.90;;;;;;4934538;29;20040;-78
2022/01/22 11:59:03;;;;;;;23.52;13.40;;;1.50;99.90;;;;;;4918239;29;20528;-78
2022/01/22 12:01:50;;;;;;;22.70;13.35;;;1.50;99.90;;;;;;4934264;29;20083;-75
2022/01/22 12:04:31;;;;;;;21.38;13.73;;;1.50;99.90;;;;;;4934726;29;20035;-77
2022/01/22 12:07:03;;;;;;;19.27;11.50;;;1.50;99.90;;;;;;4934480;29;20039;-79
2022/01/22 12:09:32;;;;;;;22.95;13.32;;;1.50;99.90;;;;;;4934309;29;20103;-78
2022/01/22 12:15:04;;;;;;;24.10;14.20;;;1.40;99.90;;;;;;4955641;29;20518;-78
2022/01/22 12:18:03;;;;;;;24.58;13.15;;;1.40;99.90;;;;;;4953710;29;20036;-75
2022/01/22 12:23:06;;;;;;;23.67;12.63;;;1.30;99.90;;;;;;4952203;29;20110;-74
2022/01/22 12:25:35;;;;;;;26.50;13.43;;;1.40;99.90;;;;;;4954280;29;20019;-73
2022/01/22 12:28:03;;;;;;;21.77;12.18;;;1.40;99.90;;;;;;4954522;29;20038;-75
2022/01/22 12:30:38;;;;;;;23.13;11.23;;;1.40;99.90;;;;;;4953495;29;20050;-71
2022/01/22 12:33:09;;;;;;;18.13;10.13;;;1.40;99.90;;;;;;4953388;29;20027;-75
2022/01/22 12:35:39;;;;;;;19.48;10.88;;;1.40;99.90;;;;;;4953620;29;20105;-74
2022/01/22 12:38:17;;;;;;;23.25;11.73;;;1.30;99.90;;;;;;4954394;29;20107;-70
2022/01/22 12:40:44;;;;;;;19.55;10.52;;;1.40;99.90;;;;;;4953716;29;20046;-75
2022/01/22 12:43:14;;;;;;;22.98;13.05;;;1.40;99.90;;;;;;4954377;29;20110;-76
2022/01/22 12:45:44;;;;;;;17.92;8.77;;;1.40;99.90;;;;;;4953547;29;20359;-75
2022/01/22 12:48:13;;;;;;;14.80;9.15;;;1.40;99.90;;;;;;4954439;29;20121;-75
2022/01/22 12:50:39;;;;;;;17.73;8.82;;;1.40;99.90;;;;;;4954006;29;20133;-75
2022/01/22 12:53:12;;;;;;;18.33;10.43;;;1.40;99.90;;;;;;4954501;29;20027;-74
2022/01/22 12:58:32;;;;;;;20.27;11.50;;;1.50;99.90;;;;;;4952776;29;20039;-73
2022/01/22 13:01:15;;;;;;;20.10;10.25;;;1.70;99.90;;;;;;4954455;29;20051;-73
2022/01/22 13:03:44;;;;;;;17.50;9.95;;;1.70;99.90;;;;;;4954890;29;20023;-75
2022/01/22 13:06:10;;;;;;;16.48;8.98;;;1.90;99.90;;;;;;4954681;29;20031;-76
2022/01/22 13:08:57;;;;;;;17.08;7.70;;;2.00;99.90;;;;;;4910380;29;20032;-73
2022/01/22 13:11:33;;;;;;;14.10;7.65;;;2.00;99.90;;;;;;4913325;29;20044;-75
2022/01/22 13:14:00;;;;;;;13.85;7.50;;;2.10;99.90;;;;;;4913359;29;20187;-75
2022/01/22 13:16:27;;;;;;;14.95;7.40;;;2.10;99.90;;;;;;4912830;29;20104;-75
2022/01/22 13:18:58;;;;;;;11.52;6.80;;;2.10;99.90;;;;;;4913719;29;20028;-76
2022/01/22 13:21:32;;;;;;;15.98;7.68;;;2.20;99.90;;;;;;4909709;29;20149;-75
2022/01/22 13:24:04;;;;;;;19.90;9.27;;;2.20;99.90;;;;;;4894224;29;20519;-74
2022/01/22 13:29:46;;;;;;;24.48;11.85;;;2.30;99.90;;;;;;4894715;29;20032;-73
2022/01/22 13:49:05;;;;;;;15.45;8.57;;;2.40;99.90;;;;;;4934613;29;20035;-76
2022/01/22 13:51:32;;;;;;;15.25;7.85;;;2.40;99.90;;;;;;4934529;29;20036;-76
2022/01/22 13:54:01;;;;;;;18.15;8.93;;;2.40;99.90;;;;;;4935081;29;20375;-72
2022/01/22 13:56:53;;;;;;;17.05;8.57;;;2.40;99.90;;;;;;4933183;29;20028;-75
2022/01/22 13:59:26;;;;;;;16.40;8.32;;;2.60;99.90;;;;;;4934346;29;20122;-74
2022/01/22 14:04:51;;;;;;;17.42;9.32;;;2.50;99.90;;;;;;4934090;29;20029;-77
2022/01/22 14:07:29;;;;;;;15.75;7.95;;;2.50;99.90;;;;;;4934019;29;20123;-76
2022/01/22 14:10:07;;;;;;;18.52;9.68;;;2.40;99.90;;;;;;4934441;29;20114;-76
2022/01/22 14:15:24;;;;;;;27.50;13.02;;;2.50;99.90;;;;;;4933634;29;20387;-74
2022/01/22 14:21:09;;;;;;;15.57;8.23;;;2.50;99.90;;;;;;4946649;28;20051;-75
2022/01/22 14:23:37;;;;;;;11.63;6.03;;;2.50;99.90;;;;;;4949411;29;20048;-74
2022/01/22 14:26:13;;;;;;;13.27;6.35;;;2.60;99.90;;;;;;4956401;29;20020;-73
2022/01/22 14:28:54;;;;;;;7.72;5.43;;;2.70;99.90;;;;;;4955990;29;20019;-74
2022/01/22 14:31:51;;;;;;;9.75;5.22;;;2.60;99.90;;;;;;4951817;29;20085;-74
2022/01/22 14:34:33;;;;;;;15.50;6.40;;;2.60;99.90;;;;;;4956901;29;20118;-73
2022/01/22 14:37:00;;;;;;;12.50;6.40;;;2.70;99.90;;;;;;4956987;29;20067;-72
2022/01/22 14:43:58;;;;;;;20.77;9.77;;;2.60;99.90;;;;;;4955342;29;20752;-73
2022/01/22 14:45:11;;;;;;;14.02;6.60;;;2.60;99.90;;;;;;4952112;29;20001;-73
2022/01/22 14:47:37;;;;;;;15.82;7.93;;;2.70;99.90;;;;;;4952112;29;20034;-73
2022/01/22 14:50:08;;;;;;;12.05;7.03;;;2.60;99.90;;;;;;4950934;29;20038;-74
2022/01/22 14:52:34;;;;;;;12.20;6.45;;;2.70;99.90;;;;;;4954508;29;20469;-75
2022/01/22 14:55:04;;;;;;;13.52;6.65;;;2.60;99.90;;;;;;4953925;29;20429;-74
2022/01/22 14:57:35;;;;;;;14.45;7.55;;;2.60;99.90;;;;;;4954959;29;20085;-75
2022/01/22 15:00:07;;;;;;;14.15;6.97;;;2.60;99.90;;;;;;4954814;29;20043;-75
2022/01/22 15:02:35;;;;;;;16.35;8.55;;;2.60;99.90;;;;;;4955081;29;20114;-72
2022/01/22 15:05:02;;;;;;;14.88;8.27;;;2.60;99.90;;;;;;4955185;29;20027;-73
2022/01/22 15:07:29;;;;;;;10.15;5.95;;;2.50;99.90;;;;;;4955577;29;20038;-75
2022/01/22 15:09:55;;;;;;;12.25;6.35;;;2.40;99.90;;;;;;4955379;29;20468;-75
2022/01/22 15:12:21;;;;;;;15.07;6.82;;;2.40;99.90;;;;;;4956466;29;20028;-75
2022/01/22 15:14:48;;;;;;;11.82;6.35;;;2.30;99.90;;;;;;4960475;29;20027;-74
2022/01/22 15:17:26;;;;;;;18.40;9.88;;;2.20;99.90;;;;;;4953953;29;20019;-75
2022/01/22 15:19:53;;;;;;;11.10;5.85;;;2.10;99.90;;;;;;4954215;29;20031;-76
2022/01/22 15:22:19;;;;;;;13.65;7.22;;;2.10;99.90;;;;;;4958179;29;20036;-76
2022/01/22 15:24:50;;;;;;;22.02;9.95;;;1.90;99.90;;;;;;4960846;29;20027;-75
2022/01/22 15:27:19;;;;;;;20.70;12.70;;;1.80;99.90;;;;;;4960312;29;20049;-71
2022/01/22 15:35:07;;;;;;;23.25;11.70;;;1.60;99.90;;;;;;4952423;29;20027;-74
2022/01/22 15:37:35;;;;;;;22.75;11.45;;;1.50;99.90;;;;;;4955520;29;20023;-73
2022/01/22 15:40:03;;;;;;;18.27;10.43;;;1.50;99.90;;;;;;4954562;29;20066;-73
2022/01/22 15:42:30;;;;;;;42.35;21.38;;;1.40;99.90;;;;;;4956037;29;20047;-71
2022/01/22 15:44:56;;;;;;;44.72;24.40;;;1.30;99.90;;;;;;4954861;29;20027;-73
2022/01/22 15:47:22;;;;;;;38.75;23.75;;;1.20;99.90;;;;;;4955414;29;20477;-72
2022/01/22 15:49:55;;;;;;;42.10;25.58;;;1.20;99.90;;;;;;4955872;29;20062;-72
2022/01/22 15:52:22;;;;;;;48.50;31.25;;;1.20;99.90;;;;;;4954006;29;20031;-73
2022/01/22 15:54:48;;;;;;;78.07;41.63;;;1.10;99.90;;;;;;4952664;29;20096;-72
2022/01/22 15:57:15;;;;;;;94.18;53.58;;;1.10;99.90;;;;;;4950364;29;20098;-74
2022/01/22 15:59:41;;;;;;;118.95;69.97;;;1.00;99.90;;;;;;4952743;29;20047;-74
2022/01/22 16:02:08;;;;;;;140.20;89.05;;;1.00;99.90;;;;;;4953340;29;20505;-73
2022/01/22 16:04:35;;;;;;;182.55;113.82;;;0.90;99.90;;;;;;4950386;29;20024;-73
2022/01/22 16:07:17;;;;;;;198.45;127.85;;;0.80;99.90;;;;;;4951966;29;20082;-73
2022/01/22 16:09:44;;;;;;;176.90;106.90;;;0.80;99.90;;;;;;4943050;28;20027;-72
2022/01/22 16:12:11;;;;;;;180.45;111.35;;;0.80;99.90;;;;;;4946212;29;20123;-72
2022/01/22 16:14:37;;;;;;;163.18;101.90;;;0.70;99.90;;;;;;4952017;29;20065;-72
2022/01/22 16:17:05;;;;;;;137.18;80.93;;;0.60;99.90;;;;;;4948855;29;20028;-71
2022/01/22 16:19:33;;;;;;;82.88;49.20;;;0.60;99.90;;;;;;4948337;29;20086;-73
2022/01/22 16:21:59;;;;;;;84.32;51.35;;;0.50;99.90;;;;;;4936178;29;20039;-73
2022/01/22 16:24:25;;;;;;;94.30;52.00;;;0.40;99.90;;;;;;4950923;29;20031;-73
2022/01/22 16:26:51;;;;;;;82.68;49.97;;;0.40;99.90;;;;;;4953443;29;20023;-72
2022/01/22 16:29:17;;;;;;;49.83;29.85;;;0.30;99.90;;;;;;4950848;29;20089;-72
2022/01/22 16:31:46;;;;;;;39.63;23.17;;;0.20;99.90;;;;;;4950488;29;20462;-71